Christopher Corbineau

Christopher Corbineau

Statistiques 2026

  • Courses courues : 100
  • Nb de victoires : 13
  • Nb de places : 31
  • Écart gagnant : 10
  • Réussite à la gagne : 13%
  • Réussite à la place : 31%
Musique : 2m Dm Dm 4a Dm 2a 4a 5a Da 3m 1m 6a 2a 1a Da 1a Dm 1m
DateRangCatégorieAlloc.Dist.HippodromeChevalRed. KmSpé.
18/07/21 D Trot 14 000€ 2 625m Saint Jean De Monts Gracieuse de Bey Monté
17/07/21 5 Trot 33 000€ 2 875m Enghien Soisy Guapita Laumax 1'16"0 Monté lire

Longtemps en queue de peloton, puis quatrième dans le dernier tournant, a plafonné à la distance.

16/07/21 D Trot 19 000€ 2 750m Cabourg Elton du Ham Monté
15/07/21 4 Trot 67 000€ 2 875m Enghien Soisy Dynamite Marceaux 1'14"3 Monté lire

Après avoir figuré, a fait illusion avant de coincer dans la phase finale.

14/07/21 2 Trot 15 000€ 2 775m Les Sables D'Olonne Golden Slipper 1'15"8 Monté
14/07/21 2 Trot 14 000€ 2 150m Les Sables D'Olonne Isabella Dimjy 1'16"9 Monté
14/07/21 D Trot 12 000€ 2 850m Durtal Hauckland Monté
14/07/21 D Trot 12 000€ 2 825m Durtal Heat de Dompierre Monté
13/07/21 5 Trot 17 000€ 2 750m Cabourg Helter Skelter 1'15"5 Monté
11/07/21 0 Trot 12 000€ 2 550m Gournay En Bray Italia de Leau Monté
10/07/21 D Trot 15 000€ 2 400m Amiens Her Majesty Tege Monté
09/07/21 D Trot 17 000€ 2 750m Cabourg Heitida Gede Monté
09/07/21 2 Trot 33 000€ 2 750m Cabourg Djoko Magique 1'13"6 Monté
01/07/21 2 Trot 20 000€ 2 700m Graignes Eloge de Lara 1'13"8 Monté
29/06/21 2 Trot 33 000€ 2 700m Vincennes Halfa 1'15"3 Monté
29/06/21 9 Trot 16 000€ 2 450m Caen Ideal des Arcs 1'26"9 Monté
29/06/21 8 Trot 16 000€ 2 450m Caen Irish Melody 1'20"2 Monté
27/06/21 0 Trot 200 000€ 2 850m Vincennes Hispanien Monté lire

N'a joué aucun rôle utile.

27/06/21 2 Trot 170 000€ 2 175m Vincennes Ici C'Est Paris 1'12"5 Monté
25/06/21 2 Trot 100 000€ 2 700m Vincennes Guide Moi Forgan 1'12"7 Monté lire

Principal animateur, a conservé courageusement le premier accessit.

24/06/21 D Trot 24 000€ 2 850m Mauquenchy Djoko Magique Monté
24/06/21 0 Trot 16 000€ 2 850m Mauquenchy Harmonie Carnois Monté
22/06/21 D Trot 20 000€ 2 450m Caen Guz Map Monté
22/06/21 D Trot 18 000€ 2 450m Caen Her Majesty Tege Monté
20/06/21 3 Trot 15 000€ 2 625m Cherbourg Humla Viking 1'16"8 Monté
19/06/21 0 Trot 51 000€ 2 900m Enghien Soisy East River Monté lire

N'a joué aucun rôle utile.

19/06/21 5 Trot 44 000€ 2 875m Enghien Soisy Hayrton Magic 1'15"5 Monté
17/06/21 0 Trot 13 000€ 2 700m Graignes Inuko Monté
15/06/21 9 Trot 33 000€ 2 175m Vincennes Iroquois de Sienne 1'88"8 Monté
14/06/21 1 Trot 31 000€ 2 450m Caen Djoko Magique 1'12"9 Monté lire

Très vite en troisième position, a su se montrer le plus fort dans la ligne droite.

14/06/21 6 Trot 20 000€ 2 450m Caen Havane Fligny 1'15"3 Monté
13/06/21 1 Trot 19 000€ 2 600m Le Touquet Eloge de Lara 1'19"7 Monté
13/06/21 4 Trot 18 000€ 2 875m Argentan Golden du Bourg 1'16"5 Attelé
13/06/21 2 Trot 16 000€ 2 875m Argentan Halfa 1'17"3 Monté
13/06/21 D Trot 18 000€ 2 875m Argentan Glamour Gwen Attelé
13/06/21 4 Trot 16 000€ 2 875m Argentan Hip Hop d'Eurvad 1'17"0 Monté
12/06/21 0 Trot 19 000€ 2 725m Lisieux Gamble Attelé
12/06/21 7 Trot 23 000€ 2 725m Lisieux Idaho Paulo 1'17"8 Attelé
11/06/21 1 Trot 15 000€ 2 325m Toulouse Her Majesty Tege 1'16"4 Monté
11/06/21 1 Trot 17 000€ 2 325m Toulouse Ideal du Moulin 1'18"8 Monté
07/06/21 D Trot 25 000€ 2 150m Vichy Horace des Champs Attelé lire

S'est désuni dans le tournant final alors qu'il avait l'avantage et semblait avoir encore quelques ressources.

07/06/21 4 Trot 33 000€ 2 950m Vichy Ermes de Corday Monté lire

Après avoir figuré, a conclu honorablement.

07/06/21 D Trot 17 000€ 2 150m Vichy Indian Blues Attelé
06/06/21 D Trot 13 000€ 2 600m La Roche Sur Yon Firsso Wind Monté
06/06/21 0 Trot 15 000€ 2 600m La Roche Sur Yon Graziella Bond Attelé
06/06/21 6 Trot 11 000€ 2 600m La Roche Sur Yon Impressionnant Attelé
05/06/21 D Trot 15 000€ 2 550m Reims Indien de Fontaine Monté
05/06/21 D Trot 14 000€ 2 550m Reims Humla Viking Monté
01/06/21 2 Trot 100 000€ 2 700m Vincennes Guide Moi Forgan 1'12"6 Monté lire

Après avoir évolué en retrait, a conclu de très bonne manière.

30/05/21 0 Trot 19 000€ 2 800m Rambouillet Django Rudelande Attelé